createdAt,value
2017-11-11T01:37:27.533Z,5.32
2017-11-11T01:37:28.103Z,5.38
2017-11-11T01:37:28.702Z,5.41
2017-11-11T01:37:29.306Z,5.38
2017-11-11T01:37:29.903Z,5.37
2017-11-11T01:37:30.498Z,5.35
2017-11-11T01:37:31.110Z,5.35
2017-11-11T01:37:31.698Z,5.34
2017-11-11T01:37:32.300Z,5.34
2017-11-11T01:37:32.899Z,5.37
2017-11-11T01:37:33.498Z,5.30
2017-11-11T01:37:34.099Z,5.38
2017-11-11T01:40:26.414Z,5.40
2017-11-11T01:40:26.988Z,5.34
2017-11-11T01:40:27.586Z,5.37
2017-11-11T01:40:28.188Z,5.37
2017-11-11T01:40:28.783Z,5.41
2017-11-11T01:40:29.384Z,5.32
2017-11-11T01:40:29.994Z,5.49
2017-11-11T01:40:30.591Z,5.38
2017-11-11T01:40:31.183Z,5.46
2017-11-11T01:40:31.785Z,5.49
2017-11-11T01:40:32.382Z,5.45
2017-11-11T01:40:32.993Z,5.48
2017-11-11T01:41:27.048Z,5.50
2017-11-11T01:41:27.625Z,5.48
2017-11-11T01:41:28.223Z,5.38
2017-11-11T01:41:28.823Z,5.45
2017-11-11T01:41:29.422Z,5.45
2017-11-11T01:41:30.023Z,5.45
2017-11-11T01:41:30.623Z,5.45
2017-11-11T01:41:31.227Z,5.34
2017-11-11T01:42:24.714Z,5.45
2017-11-11T01:42:25.276Z,5.41
2017-11-11T01:42:25.883Z,5.48
2017-11-11T01:42:26.489Z,5.52
2017-11-11T01:42:27.076Z,5.43
2017-11-11T01:42:27.674Z,5.49
2017-11-11T01:42:28.273Z,5.41
2017-11-11T01:42:28.875Z,5.49
2017-11-11T01:43:23.375Z,5.48
2017-11-11T01:43:23.951Z,5.49
2017-11-11T01:43:24.549Z,5.46
2017-11-11T01:43:25.150Z,5.45
2017-11-11T01:43:25.750Z,5.49
2017-11-11T01:43:26.349Z,5.48
2017-11-11T01:43:26.949Z,5.46
2017-11-11T01:43:27.549Z,5.41
2017-11-11T01:44:21.538Z,5.46
2017-11-11T01:44:22.116Z,5.52
2017-11-11T01:44:22.713Z,5.48
2017-11-11T01:44:23.314Z,5.48
2017-11-11T01:44:23.914Z,5.49
2017-11-11T01:44:24.513Z,5.52
2017-11-11T01:44:25.114Z,5.48
2017-11-11T01:45:19.602Z,5.52
2017-11-11T01:45:20.174Z,5.49
2017-11-11T01:45:20.774Z,5.49
2017-11-11T01:45:21.377Z,5.52
2017-11-11T01:45:21.974Z,5.52
2017-11-11T01:45:22.580Z,5.50
2017-11-11T01:45:23.177Z,5.53
2017-11-11T01:45:23.778Z,5.55
2017-11-11T01:46:17.255Z,5.49
2017-11-11T01:46:17.829Z,5.55
2017-11-11T01:46:18.434Z,5.46
2017-11-11T01:46:19.032Z,5.43
2017-11-11T01:46:19.628Z,5.48
2017-11-11T01:46:20.229Z,5.55
2017-11-11T01:46:20.827Z,5.59
2017-11-11T01:46:21.429Z,5.53
2017-11-11T01:47:14.906Z,5.46
2017-11-11T01:47:15.480Z,5.49
2017-11-11T01:47:16.078Z,5.46
2017-11-11T01:47:16.679Z,5.48
2017-11-11T01:47:17.280Z,5.49
2017-11-11T01:47:17.880Z,5.60
2017-11-11T01:47:18.478Z,5.57
2017-11-11T01:47:19.079Z,5.60
2017-11-11T01:48:14.093Z,5.55
2017-11-11T01:48:14.667Z,5.60
2017-11-11T01:48:15.268Z,5.60
2017-11-11T01:48:15.869Z,5.50
2017-11-11T01:48:16.466Z,5.56
2017-11-11T01:48:17.066Z,5.56
2017-11-11T01:49:11.028Z,5.59
2017-11-11T01:49:11.603Z,5.60
2017-11-11T01:49:12.202Z,5.59
2017-11-11T01:49:12.801Z,5.59
2017-11-11T01:49:13.401Z,5.60
2017-11-11T01:49:14.003Z,5.56
2017-11-11T01:49:14.602Z,5.57
2017-11-11T01:49:15.206Z,5.64
2017-11-11T01:50:08.681Z,5.56
2017-11-11T01:50:09.254Z,5.60
2017-11-11T01:50:09.853Z,5.64
2017-11-11T01:50:10.455Z,5.59
2017-11-11T01:50:11.054Z,5.63
2017-11-11T01:50:11.659Z,5.68
2017-11-11T01:50:12.253Z,5.60
2017-11-11T01:50:12.854Z,5.55
2017-11-11T01:51:06.332Z,5.57
2017-11-11T01:51:06.907Z,5.60
2017-11-11T01:51:07.506Z,5.68
2017-11-11T01:51:08.106Z,5.66
2017-11-11T01:51:08.708Z,5.66
2017-11-11T01:51:09.306Z,5.66
2017-11-11T01:51:09.905Z,5.64
2017-11-11T01:51:10.505Z,5.68
2017-11-11T01:52:03.984Z,5.63
2017-11-11T01:52:04.559Z,5.63
2017-11-11T01:52:05.158Z,5.63
2017-11-11T01:52:05.757Z,5.63
2017-11-11T01:52:06.356Z,5.63
2017-11-11T01:52:06.968Z,5.63
2017-11-11T01:52:07.556Z,5.68
2017-11-11T01:52:08.156Z,5.67
2017-11-11T01:54:26.807Z,5.66
2017-11-11T01:54:27.308Z,5.70
2017-11-11T01:54:27.906Z,5.74
2017-11-11T01:54:28.506Z,5.73
2017-11-11T01:54:29.107Z,5.71
2017-11-11T01:54:29.706Z,5.70
2017-11-11T01:54:30.305Z,5.71
2017-11-11T01:54:30.919Z,5.71
2017-11-11T01:57:12.071Z,5.67
2017-11-11T01:57:12.579Z,5.73
2017-11-11T01:57:13.170Z,5.75
2017-11-11T01:57:13.769Z,5.60
2017-11-11T01:57:14.370Z,5.73
2017-11-11T01:57:14.971Z,5.73
2017-11-11T01:57:15.568Z,5.73
2017-11-11T01:57:16.171Z,5.60
2017-11-11T01:57:16.771Z,5.67
2017-11-11T01:57:17.398Z,5.64
2017-11-11T01:57:17.968Z,5.73
2017-11-11T01:57:18.573Z,5.82
2017-11-11T01:57:19.170Z,5.67
2017-11-11T01:57:19.768Z,5.71
2017-11-11T01:57:20.367Z,5.63
2017-11-11T01:57:20.969Z,5.67
2017-11-11T01:57:21.568Z,5.63
2017-11-11T01:57:22.165Z,5.67
2017-11-11T01:58:19.179Z,5.60
2017-11-11T01:58:19.761Z,5.74
2017-11-11T01:58:20.354Z,5.77
2017-11-11T01:59:13.863Z,5.66
2017-11-11T01:59:14.436Z,5.78
2017-11-11T01:59:15.037Z,5.70
2017-11-11T01:59:15.637Z,5.64
2017-11-11T01:59:16.236Z,5.71
2017-11-11T01:59:16.839Z,5.63
2017-11-11T01:59:17.435Z,5.75
2017-11-11T01:59:18.035Z,5.71
2017-11-11T02:01:42.173Z,5.81
2017-11-11T02:01:42.675Z,5.68
2017-11-11T02:01:43.274Z,5.75
2017-11-11T02:01:43.874Z,5.70
2017-11-11T02:01:44.475Z,5.68
2017-11-11T02:01:45.073Z,5.74
2017-11-11T02:01:45.675Z,5.71
2017-11-11T02:01:46.279Z,5.75
2017-11-11T02:01:46.871Z,5.67
2017-11-11T02:01:47.473Z,5.67
2017-11-11T02:01:48.070Z,5.67
2017-11-11T02:01:48.669Z,5.70
2017-11-11T02:03:30.541Z,5.56
2017-11-11T02:03:31.044Z,5.74
2017-11-11T02:03:31.649Z,5.73
2017-11-11T02:03:32.243Z,5.66
2017-11-11T02:03:32.842Z,5.74
2017-11-11T02:03:33.442Z,5.70
2017-11-11T02:03:34.042Z,5.75
2017-11-11T02:03:34.641Z,5.70
2017-11-11T02:03:35.242Z,5.71
2017-11-11T02:03:35.840Z,5.67
2017-11-11T02:03:36.441Z,5.73
2017-11-11T02:04:30.486Z,5.67
2017-11-11T02:04:31.060Z,5.71
2017-11-11T02:04:31.667Z,5.81
2017-11-11T02:04:32.259Z,5.74
2017-11-11T02:04:32.870Z,5.70
2017-11-11T02:04:33.459Z,5.77
2017-11-11T02:04:34.058Z,5.78
2017-11-11T02:05:27.524Z,5.64
2017-11-11T02:05:28.098Z,5.75
2017-11-11T02:05:28.700Z,5.74
2017-11-11T02:05:29.301Z,5.67
2017-11-11T02:05:29.897Z,5.70
2017-11-11T02:05:30.497Z,5.77
2017-11-11T02:05:31.097Z,5.74
2017-11-11T02:05:31.702Z,5.64
2017-11-11T02:06:25.175Z,5.73
2017-11-11T02:06:25.749Z,5.67
2017-11-11T02:06:26.349Z,5.59
2017-11-11T02:06:26.954Z,5.74
2017-11-11T02:06:27.553Z,5.71
2017-11-11T02:06:28.147Z,5.73
2017-11-11T02:06:28.748Z,5.66
2017-11-11T02:06:29.347Z,5.75
2017-11-11T02:07:23.337Z,5.70
2017-11-11T02:07:23.913Z,5.70
2017-11-11T02:07:24.514Z,5.73
2017-11-11T02:07:25.111Z,5.73
2017-11-11T02:07:25.712Z,5.68
2017-11-11T02:07:26.312Z,5.75
2017-11-11T02:07:26.910Z,5.70
2017-11-11T02:08:23.447Z,5.64
2017-11-11T02:08:24.023Z,5.57
2017-11-11T02:08:24.625Z,5.64
2017-11-11T02:09:19.666Z,5.60
2017-11-11T02:09:20.238Z,5.57
2017-11-11T02:09:20.838Z,5.63
2017-11-11T02:09:21.438Z,5.67
2017-11-11T02:09:22.039Z,5.64
2017-11-11T02:09:22.638Z,5.59
2017-11-11T02:10:16.705Z,5.59
2017-11-11T02:10:17.277Z,5.53
2017-11-11T02:10:17.878Z,5.56
2017-11-11T02:10:18.477Z,5.57
2017-11-11T02:10:19.076Z,5.53
2017-11-11T02:10:19.677Z,5.64
2017-11-11T02:10:20.277Z,5.60
2017-11-11T02:10:20.876Z,5.55
2017-11-11T02:11:14.359Z,5.49
2017-11-11T02:11:14.934Z,5.55
2017-11-11T02:11:15.529Z,5.55
2017-11-11T02:11:16.133Z,5.50
2017-11-11T02:11:16.727Z,5.57
2017-11-11T02:11:17.328Z,5.49
2017-11-11T02:11:17.937Z,5.59
2017-11-11T02:11:18.530Z,5.63
2017-11-11T02:12:15.604Z,5.50
2017-11-11T02:12:16.104Z,5.59
2017-11-11T02:13:17.136Z,5.50
2017-11-11T02:13:17.707Z,5.50
2017-11-11T02:13:18.308Z,5.53
2017-11-11T02:13:18.911Z,5.55
2017-11-11T02:13:19.505Z,5.49
2017-11-11T02:13:20.107Z,5.50
2017-11-11T02:13:20.705Z,5.52
2017-11-11T02:13:21.310Z,5.50
2017-11-11T02:13:21.910Z,5.48
2017-11-11T02:13:22.505Z,5.50
2017-11-11T02:13:23.112Z,5.57
2017-11-11T02:13:23.704Z,5.53
2017-11-11T02:14:17.244Z,5.45
2017-11-11T02:14:17.816Z,5.55
2017-11-11T02:14:18.420Z,5.46
2017-11-11T02:14:19.016Z,5.38
2017-11-11T02:14:19.619Z,5.48
2017-11-11T02:14:20.215Z,5.40
2017-11-11T02:14:20.814Z,5.49
2017-11-11T02:14:21.415Z,5.46
2017-11-11T02:15:14.905Z,5.34
2017-11-11T02:15:15.469Z,5.46
2017-11-11T02:15:16.067Z,5.46
2017-11-11T02:15:16.675Z,5.43
2017-11-11T02:15:17.267Z,5.45
2017-11-11T02:15:17.867Z,5.43
2017-11-11T02:15:18.467Z,5.45
2017-11-11T02:15:19.070Z,5.46
2017-11-11T02:16:15.620Z,5.48
2017-11-11T02:16:16.193Z,5.48
2017-11-11T02:16:16.791Z,5.40
2017-11-11T02:17:28.320Z,5.46
2017-11-11T02:17:28.896Z,5.48
2017-11-11T02:17:29.498Z,5.50
2017-11-11T02:17:30.093Z,5.48
2017-11-11T02:17:30.693Z,5.37
2017-11-11T02:17:31.294Z,5.49
2017-11-11T02:17:31.892Z,5.48
2017-11-11T02:17:32.493Z,5.40
2017-11-11T02:17:33.092Z,5.48
2017-11-11T02:17:33.694Z,5.35
2017-11-11T02:17:34.292Z,5.48
2017-11-11T02:18:47.785Z,5.30
2017-11-11T02:18:48.384Z,5.37
2017-11-11T02:18:48.959Z,5.37
2017-11-11T02:18:49.560Z,5.37
2017-11-11T02:18:50.159Z,5.38
2017-11-11T02:18:50.758Z,5.40
2017-11-11T02:18:51.357Z,5.34
2017-11-11T02:18:51.959Z,5.40
2017-11-11T02:19:45.436Z,5.35
2017-11-11T02:19:46.014Z,5.34
2017-11-11T02:19:46.612Z,5.35
2017-11-11T02:19:47.211Z,5.38
2017-11-11T02:19:47.810Z,5.31
2017-11-11T02:19:48.410Z,5.28
2017-11-11T02:19:49.011Z,5.34
2017-11-11T02:19:49.610Z,5.30
2017-11-11T02:20:43.111Z,5.30
2017-11-11T02:20:43.663Z,5.35
2017-11-11T02:20:44.263Z,5.32
2017-11-11T02:20:44.862Z,5.38
2017-11-11T02:20:45.461Z,5.45
2017-11-11T02:20:46.064Z,5.37
2017-11-11T02:20:46.662Z,5.37
2017-11-11T02:20:47.260Z,5.32
2017-11-11T02:21:42.274Z,5.32
2017-11-11T02:21:42.850Z,5.34
2017-11-11T02:21:43.451Z,5.28
2017-11-11T02:21:44.049Z,5.32
2017-11-11T02:21:44.650Z,5.28
2017-11-11T02:21:45.249Z,5.28
2017-11-11T02:21:45.849Z,5.31
2017-11-11T02:22:39.315Z,5.28
2017-11-11T02:22:39.889Z,5.28
2017-11-11T02:22:40.489Z,5.20
2017-11-11T02:22:41.087Z,5.28
2017-11-11T02:22:41.686Z,5.27
2017-11-11T02:22:42.287Z,5.25
2017-11-11T02:22:42.887Z,5.28
2017-11-11T02:22:43.487Z,5.32
2017-11-11T02:23:36.965Z,5.22
2017-11-11T02:23:37.539Z,5.20
2017-11-11T02:23:38.139Z,5.34
2017-11-11T02:23:38.738Z,5.30
2017-11-11T02:23:39.338Z,5.37
2017-11-11T02:23:39.938Z,5.32
2017-11-11T02:23:40.537Z,5.30
2017-11-11T02:23:41.137Z,5.34
2017-11-11T02:24:34.619Z,5.23
2017-11-11T02:24:35.192Z,5.25
2017-11-11T02:24:35.791Z,5.19
2017-11-11T02:24:36.390Z,5.34
2017-11-11T02:24:36.991Z,5.20
2017-11-11T02:24:37.590Z,5.19
2017-11-11T02:24:38.189Z,5.22
2017-11-11T02:24:38.805Z,5.20
2017-11-11T02:25:35.340Z,5.22
2017-11-11T02:25:35.915Z,5.22
2017-11-11T02:25:36.513Z,5.22
2017-11-11T02:26:30.536Z,5.25
2017-11-11T02:26:31.105Z,5.28
2017-11-11T02:26:31.709Z,5.20
2017-11-11T02:26:32.306Z,5.17
2017-11-11T02:26:32.906Z,5.25
2017-11-11T02:26:33.505Z,5.25
2017-11-11T02:26:34.105Z,5.20
2017-11-11T02:27:32.591Z,5.25
2017-11-11T02:27:33.166Z,5.25
2017-11-11T02:27:33.762Z,5.17
2017-11-11T02:27:34.360Z,5.25
2017-11-11T02:27:34.965Z,5.20
2017-11-11T02:27:35.561Z,5.16
2017-11-11T02:27:36.159Z,5.25
2017-11-11T02:27:36.762Z,5.14
2017-11-11T02:27:37.359Z,5.23
2017-11-11T02:27:37.959Z,5.20
2017-11-11T02:27:38.558Z,5.19
2017-11-11T02:27:39.157Z,5.27
2017-11-11T02:27:39.763Z,5.17
2017-11-11T02:27:40.359Z,5.19
2017-11-11T02:27:40.957Z,5.19
2017-11-11T02:27:41.558Z,5.25
2017-11-11T02:27:42.157Z,5.23
2017-11-11T02:28:37.204Z,5.16
2017-11-11T02:28:37.777Z,5.25
2017-11-11T02:28:38.376Z,5.19
2017-11-11T02:28:38.977Z,5.19
2017-11-11T02:28:39.575Z,5.17
2017-11-11T02:28:40.176Z,5.13
2017-11-11T02:28:40.775Z,5.23
2017-11-11T02:28:41.376Z,5.16
2017-11-11T02:29:36.399Z,5.20
2017-11-11T02:29:36.965Z,5.20
2017-11-11T02:29:37.563Z,5.20
2017-11-11T02:29:38.163Z,5.17
2017-11-11T02:29:38.763Z,5.19
2017-11-11T02:29:39.363Z,5.22
2017-11-11T02:30:34.350Z,5.17
2017-11-11T02:30:34.924Z,5.17
2017-11-11T02:30:35.523Z,5.20
2017-11-11T02:30:36.125Z,5.19
2017-11-11T02:30:36.725Z,5.17
2017-11-11T02:30:37.325Z,5.27
2017-11-11T02:30:37.923Z,5.20
2017-11-11T02:30:38.533Z,5.22
2017-11-11T02:31:37.018Z,5.16
2017-11-11T02:31:37.594Z,5.16
2017-11-11T02:31:38.195Z,5.13
2017-11-11T02:31:38.793Z,5.17
2017-11-11T02:31:39.394Z,5.13
2017-11-11T02:31:39.994Z,5.23
2017-11-11T02:31:40.600Z,5.14
2017-11-11T02:31:41.196Z,5.16
2017-11-11T02:31:41.798Z,5.16
2017-11-11T02:31:42.395Z,5.16
2017-11-11T02:31:42.991Z,5.09
2017-11-11T02:31:43.591Z,5.17
2017-11-11T02:31:44.193Z,5.13
2017-11-11T02:31:44.792Z,5.14
2017-11-11T02:31:45.391Z,5.19
2017-11-11T02:31:45.991Z,5.22
2017-11-11T02:50:28.759Z,4.88
2017-11-11T02:50:29.325Z,4.86
2017-11-11T02:50:29.925Z,4.88
2017-11-11T02:50:30.522Z,4.86
2017-11-11T02:50:31.125Z,4.88
2017-11-11T02:50:31.724Z,4.86
2017-11-11T02:50:32.322Z,4.88
2017-11-11T02:50:32.923Z,4.94
2017-11-11T02:50:33.521Z,4.89
2017-11-11T02:50:34.124Z,4.96
2017-11-11T02:50:34.720Z,4.95
2017-11-11T02:50:35.320Z,4.88
2017-11-11T02:52:24.877Z,4.89
2017-11-11T02:52:25.447Z,4.92
2017-11-11T02:52:26.047Z,4.91
2017-11-11T02:52:26.644Z,4.86
2017-11-11T02:52:27.246Z,4.89
2017-11-11T02:52:27.847Z,4.86
2017-11-11T02:52:28.445Z,4.91
2017-11-11T02:52:29.054Z,4.88
2017-11-11T02:52:29.647Z,4.84
2017-11-11T02:52:30.245Z,4.86
2017-11-11T02:52:30.843Z,4.92
2017-11-11T02:52:31.444Z,4.84
2017-11-11T02:52:32.042Z,4.89
2017-11-11T02:52:32.642Z,4.88
2017-11-11T02:52:33.249Z,4.84
2017-11-11T02:53:27.746Z,4.88
2017-11-11T02:53:28.323Z,4.89
2017-11-11T02:53:28.941Z,4.83
2017-11-11T02:53:29.519Z,4.89
2017-11-11T02:53:30.125Z,4.83
2017-11-11T02:53:30.718Z,4.88
2017-11-11T02:53:31.318Z,4.88
2017-11-11T02:54:47.313Z,4.89
2017-11-11T02:54:47.891Z,4.89
2017-11-11T02:54:48.487Z,4.91
2017-11-11T02:54:49.086Z,4.89
2017-11-11T02:54:49.685Z,4.88
2017-11-11T02:54:50.290Z,4.91
2017-11-11T02:55:50.294Z,4.92
2017-11-11T02:55:50.865Z,4.94
2017-11-11T02:55:51.464Z,4.95
2017-11-11T02:55:52.062Z,4.96
2017-11-11T02:55:52.662Z,4.91
2017-11-11T02:55:53.264Z,4.95
2017-11-11T02:55:53.861Z,4.99
2017-11-11T02:55:54.460Z,4.91
2017-11-11T02:55:55.065Z,4.94
2017-11-11T02:55:55.660Z,5.01
2017-11-11T02:55:56.261Z,4.96
2017-11-11T02:55:56.860Z,4.96
2017-11-11T02:55:57.465Z,4.94
2017-11-11T02:55:58.059Z,4.92
2017-11-11T02:55:58.664Z,5.01
2017-11-11T02:55:59.258Z,4.98
2017-11-11T04:05:30.907Z,5.31
2017-11-11T04:05:31.478Z,5.40
2017-11-11T04:05:32.076Z,5.27
2017-11-11T04:05:32.676Z,5.37
2017-11-11T04:05:33.273Z,5.25
2017-11-11T04:05:33.875Z,5.38
2017-11-11T04:05:34.481Z,5.31
2017-11-11T04:05:35.074Z,5.38
2017-11-11T04:05:35.673Z,5.37
2017-11-11T04:05:36.273Z,5.28
2017-11-11T04:05:36.873Z,5.34
2017-11-11T04:05:37.472Z,5.37
2017-11-11T04:05:38.072Z,5.35
2017-11-11T04:05:38.671Z,5.31
2017-11-11T04:05:39.272Z,5.31
2017-11-11T04:05:39.875Z,5.35
2017-11-11T04:06:53.337Z,5.31
2017-11-11T04:06:53.908Z,5.35
2017-11-11T04:06:54.513Z,5.38
2017-11-11T04:06:55.108Z,5.34
2017-11-11T04:06:55.707Z,5.32
2017-11-11T04:06:56.307Z,5.34
2017-11-11T04:06:56.907Z,5.30
2017-11-11T04:06:57.507Z,5.37
2017-11-11T04:07:58.565Z,5.35
2017-11-11T04:07:59.138Z,5.34
2017-11-11T04:07:59.739Z,5.34
2017-11-11T04:08:00.337Z,5.40
2017-11-11T04:08:00.935Z,5.37
2017-11-11T04:08:01.536Z,5.34
2017-11-11T04:08:02.136Z,5.40
2017-11-11T04:08:02.735Z,5.31
2017-11-11T04:08:03.341Z,5.37
2017-11-11T04:08:03.934Z,5.37
2017-11-11T04:08:04.534Z,5.32
2017-11-11T04:08:05.135Z,5.32
2017-11-11T04:08:59.186Z,5.37
2017-11-11T04:08:59.764Z,5.32
2017-11-11T04:09:00.359Z,5.30
2017-11-11T04:09:00.958Z,5.37
2017-11-11T04:09:01.559Z,5.34
2017-11-11T04:09:02.158Z,5.46
2017-11-11T04:09:02.759Z,5.35
2017-11-11T04:09:56.224Z,5.35
2017-11-11T04:09:56.805Z,5.41
2017-11-11T04:09:57.397Z,5.35
2017-11-11T04:09:57.997Z,5.32
2017-11-11T04:09:58.597Z,5.35
2017-11-11T04:09:59.197Z,5.38
2017-11-11T04:09:59.804Z,5.31
2017-11-11T04:10:00.408Z,5.38
2017-11-11T04:10:53.880Z,5.30
2017-11-11T04:10:54.452Z,5.40
2017-11-11T04:10:55.055Z,5.40
2017-11-11T04:10:55.650Z,5.37
2017-11-11T04:10:56.249Z,5.35
2017-11-11T04:10:56.850Z,5.40
2017-11-11T04:10:57.448Z,5.41
2017-11-11T04:10:58.048Z,5.30
2017-11-11T04:11:51.530Z,5.41
2017-11-11T04:11:52.102Z,5.38
2017-11-11T04:11:52.701Z,5.31
2017-11-11T04:11:53.303Z,5.32
2017-11-11T04:11:53.902Z,5.37
2017-11-11T04:11:54.501Z,5.35
2017-11-11T04:11:55.101Z,5.38
2017-11-11T04:11:55.702Z,5.34
2017-11-11T04:12:50.716Z,5.32
2017-11-11T04:12:51.289Z,5.31
2017-11-11T04:12:51.892Z,5.31
2017-11-11T04:12:52.487Z,5.31
2017-11-11T04:12:53.088Z,5.35
2017-11-11T04:12:53.688Z,5.35
2017-11-11T04:13:52.668Z,5.31
2017-11-11T04:13:53.241Z,5.40
2017-11-11T04:13:53.840Z,5.40
2017-11-11T04:13:54.440Z,5.40
2017-11-11T04:13:55.040Z,5.35
2017-11-11T04:13:55.640Z,5.35
2017-11-11T04:13:56.245Z,5.31
2017-11-11T04:13:56.840Z,5.37
2017-11-11T04:13:57.440Z,5.34
2017-11-11T04:13:58.038Z,5.40
2017-11-11T04:13:58.640Z,5.37
2017-11-11T04:13:59.240Z,5.37
2017-11-11T04:13:59.839Z,5.37
2017-11-11T04:14:00.439Z,5.34
2017-11-11T04:14:01.040Z,5.38
2017-11-11T04:14:01.638Z,5.35
2017-11-11T04:14:02.238Z,5.35
2017-11-11T04:14:59.227Z,5.37
2017-11-11T04:14:59.801Z,5.45
2017-11-11T04:15:00.400Z,5.37
2017-11-11T04:15:54.434Z,5.38
2017-11-11T04:15:54.997Z,5.50
2017-11-11T04:15:55.594Z,5.48
2017-11-11T04:15:56.195Z,5.35
2017-11-11T04:15:56.795Z,5.38
2017-11-11T04:15:57.394Z,5.50
2017-11-11T04:15:57.993Z,5.49
2017-11-11T04:18:20.312Z,5.43
2017-11-11T04:18:20.882Z,5.46
2017-11-11T04:18:21.481Z,5.41
2017-11-11T04:18:22.081Z,5.48
2017-11-11T04:18:22.681Z,5.48
2017-11-11T04:18:23.280Z,5.37
2017-11-11T04:18:23.882Z,5.41
2017-11-11T04:18:24.479Z,5.49
2017-11-11T04:18:25.079Z,5.48
2017-11-11T04:18:25.680Z,5.37
2017-11-11T04:18:26.280Z,5.48
2017-11-11T04:18:26.880Z,5.45
2017-11-11T04:19:21.481Z,5.40
2017-11-11T04:19:22.051Z,5.55
2017-11-11T04:19:22.653Z,5.37
2017-11-11T04:19:23.250Z,5.50
2017-11-11T04:19:23.853Z,5.52
2017-11-11T04:19:24.449Z,5.46
2017-11-11T04:19:25.049Z,5.53
2017-11-11T04:20:30.086Z,5.45
2017-11-11T04:20:30.660Z,5.52
2017-11-11T04:20:31.262Z,5.50
2017-11-11T04:20:31.863Z,5.48
2017-11-11T04:20:32.472Z,5.50
2017-11-11T04:20:33.059Z,5.48
2017-11-11T04:21:27.132Z,5.52
2017-11-11T04:21:27.698Z,5.50
2017-11-11T04:21:28.299Z,5.49
2017-11-11T04:21:28.899Z,5.52
2017-11-11T04:21:29.498Z,5.52
2017-11-11T04:21:30.097Z,5.52
2017-11-11T04:21:30.700Z,5.52
2017-11-11T04:21:31.296Z,5.49
2017-11-11T04:22:25.287Z,5.49
2017-11-11T04:22:25.870Z,5.50
2017-11-11T04:22:26.462Z,5.48
2017-11-11T04:22:27.063Z,5.50
2017-11-11T04:22:27.659Z,5.52
2017-11-11T04:22:28.260Z,5.55
2017-11-11T04:22:28.860Z,5.50
2017-11-11T04:24:04.412Z,5.56
2017-11-11T04:24:04.984Z,5.46
2017-11-11T04:24:05.583Z,5.50
2017-11-11T04:24:06.184Z,5.48
2017-11-11T04:24:06.783Z,5.48
2017-11-11T04:25:21.417Z,5.52
2017-11-11T04:25:21.990Z,5.49
2017-11-11T04:25:22.589Z,5.50
2017-11-11T04:25:23.190Z,5.52
2017-11-11T04:25:23.792Z,5.52
2017-11-11T04:25:24.390Z,5.48
2017-11-11T04:25:24.990Z,5.52
2017-11-11T04:26:18.971Z,5.43
2017-11-11T04:26:19.540Z,5.55
2017-11-11T04:26:20.139Z,5.60
2017-11-11T04:26:20.740Z,5.59
2017-11-11T04:26:21.338Z,5.49
2017-11-11T04:26:21.947Z,5.52
2017-11-11T04:26:22.538Z,5.45
2017-11-11T04:27:54.105Z,5.56
2017-11-11T04:27:54.669Z,5.52
2017-11-11T04:27:55.280Z,5.63
2017-11-11T04:27:55.869Z,5.50
2017-11-11T04:27:56.469Z,5.60
2017-11-11T04:27:57.069Z,5.55
2017-11-11T04:27:57.668Z,5.59
2017-11-11T04:27:58.269Z,5.56
2017-11-11T04:27:58.868Z,5.57
2017-11-11T04:27:59.473Z,5.56
2017-11-11T04:28:00.071Z,5.56
2017-11-11T04:29:15.094Z,5.53
2017-11-11T04:29:15.668Z,5.64
2017-11-11T04:29:16.268Z,5.56
2017-11-11T04:29:16.869Z,5.52
2017-11-11T04:29:17.477Z,5.57
2017-11-11T04:29:18.071Z,5.52
2017-11-11T04:30:57.090Z,5.59
2017-11-11T04:34:09.393Z,5.63
2017-11-11T04:34:09.961Z,5.68
2017-11-11T04:34:10.563Z,5.68
2017-11-11T04:34:11.161Z,5.64
2017-11-11T04:34:11.761Z,5.66
2017-11-11T04:34:12.359Z,5.63
2017-11-11T04:34:12.960Z,5.73
2017-11-11T04:34:13.560Z,5.67
2017-11-11T04:34:14.159Z,5.64
2017-11-11T04:34:14.761Z,5.70
2017-11-11T04:34:15.359Z,5.73
2017-11-11T04:34:15.959Z,5.66
2017-11-11T04:35:10.017Z,5.68
2017-11-11T04:35:10.590Z,5.75
2017-11-11T04:35:11.191Z,5.78
2017-11-11T04:35:11.791Z,5.71
2017-11-11T04:35:12.389Z,5.60
2017-11-11T04:35:12.990Z,5.73
2017-11-11T04:35:13.592Z,5.70
2017-11-11T04:35:14.192Z,5.70
2017-11-11T04:36:08.256Z,5.73
2017-11-11T04:36:08.757Z,5.66
2017-11-11T04:36:09.353Z,5.71
2017-11-11T04:36:09.959Z,5.73
2017-11-11T04:36:10.555Z,5.74
2017-11-11T04:36:11.153Z,5.64
2017-11-11T04:36:11.752Z,5.75
2017-11-11T04:38:34.081Z,5.71
2017-11-11T04:38:34.648Z,5.75
2017-11-11T04:38:35.250Z,5.77
2017-11-11T04:38:35.845Z,5.78
2017-11-11T04:38:36.444Z,5.68
2017-11-11T04:38:37.045Z,5.73
2017-11-11T04:38:37.643Z,5.71
2017-11-11T04:38:38.244Z,5.77
2017-11-11T04:38:38.848Z,5.81
2017-11-11T04:38:39.442Z,5.73
2017-11-11T04:38:40.048Z,5.75
2017-11-11T04:38:40.641Z,5.75
2017-11-11T04:39:39.740Z,5.78
2017-11-11T04:39:40.314Z,5.81
2017-11-11T04:39:40.919Z,5.77
2017-11-11T04:39:41.513Z,5.82
2017-11-11T04:39:42.113Z,5.74
2017-11-11T04:39:42.714Z,5.78
2017-11-11T04:39:43.313Z,5.82
2017-11-11T04:39:43.917Z,5.78
2017-11-11T04:39:44.521Z,5.75
2017-11-11T04:39:45.122Z,5.74
2017-11-11T04:39:45.773Z,5.73
2017-11-11T04:39:46.342Z,5.81
2017-11-11T04:39:46.976Z,5.74
2017-11-11T04:39:47.510Z,5.78
2017-11-11T04:39:48.107Z,5.73
2017-11-11T04:39:48.707Z,5.78
2017-11-11T04:41:03.196Z,5.81
2017-11-11T04:41:03.771Z,5.71
2017-11-11T04:41:04.370Z,5.81
2017-11-11T04:41:04.968Z,5.85
2017-11-11T04:41:05.571Z,5.75
2017-11-11T04:41:06.169Z,5.71
2017-11-11T04:41:06.769Z,5.81
2017-11-11T04:41:07.372Z,5.74
2017-11-11T04:42:01.364Z,5.71
2017-11-11T04:42:01.936Z,5.81
2017-11-11T04:42:02.534Z,5.74
2017-11-11T04:42:03.148Z,5.73
2017-11-11T04:42:03.733Z,5.73
2017-11-11T04:42:04.333Z,5.74
2017-11-11T04:42:04.933Z,5.82
2017-11-11T04:43:05.976Z,5.74
2017-11-11T04:43:06.550Z,5.75
2017-11-11T04:43:07.148Z,5.77
2017-11-11T04:43:07.749Z,5.77
2017-11-11T04:43:08.348Z,5.70
2017-11-11T04:43:08.948Z,5.82
2017-11-11T04:43:09.548Z,5.74
2017-11-11T04:43:10.148Z,5.71
2017-11-11T04:43:10.748Z,5.78
2017-11-11T04:43:11.347Z,5.77
2017-11-11T04:43:11.949Z,5.71
2017-11-11T04:43:12.548Z,5.75
2017-11-11T04:44:07.013Z,5.82
2017-11-11T04:44:07.581Z,5.78
2017-11-11T04:44:08.187Z,5.83
2017-11-11T04:44:08.780Z,5.77
2017-11-11T04:44:09.379Z,5.81
2017-11-11T04:44:09.981Z,5.86
2017-11-11T04:44:10.583Z,5.83
2017-11-11T04:44:11.179Z,5.75
2017-11-11T04:45:06.193Z,5.77
2017-11-11T04:45:06.768Z,5.77
2017-11-11T04:45:07.369Z,5.78
2017-11-11T04:45:07.967Z,5.83
2017-11-11T04:45:08.566Z,5.81
2017-11-11T04:45:09.166Z,5.86
2017-11-11T04:46:04.664Z,5.77
2017-11-11T04:46:05.238Z,5.73
2017-11-11T04:46:05.837Z,5.74
2017-11-11T04:46:06.438Z,5.75
2017-11-11T04:46:07.037Z,5.86
2017-11-11T04:46:07.636Z,5.86
2017-11-11T04:47:36.722Z,5.77
2017-11-11T04:47:37.301Z,5.86
2017-11-11T04:47:37.896Z,5.75
2017-11-11T04:47:38.499Z,5.81
2017-11-11T04:47:39.095Z,5.83
2017-11-11T04:47:39.697Z,5.85
2017-11-11T05:05:07.993Z,5.60
2017-11-11T05:05:08.540Z,5.52
2017-11-11T05:05:09.145Z,5.59
2017-11-11T05:05:09.739Z,5.59
2017-11-11T05:05:10.338Z,5.50
2017-11-11T05:05:10.937Z,5.55
2017-11-11T05:05:11.536Z,5.56
2017-11-11T05:05:12.137Z,5.59
2017-11-11T05:06:33.778Z,5.64
2017-11-11T05:06:34.351Z,5.59
2017-11-11T05:06:34.952Z,5.59
2017-11-11T05:06:35.549Z,5.56
2017-11-11T05:06:36.149Z,5.63
2017-11-11T05:06:36.748Z,5.52
2017-11-11T05:06:37.349Z,5.55
2017-11-11T05:06:37.949Z,5.60
2017-11-11T05:06:38.548Z,5.59
2017-11-11T05:06:39.149Z,5.59
2017-11-11T05:06:39.749Z,5.59
2017-11-11T05:08:58.055Z,5.63
2017-11-11T06:05:06.740Z,6.06
2017-11-11T06:05:07.326Z,6.04
2017-11-11T06:05:07.913Z,6.06
2017-11-11T06:05:08.512Z,6.06
2017-11-11T06:05:09.127Z,6.03
2017-11-11T06:05:09.713Z,6.03
2017-11-11T06:05:10.313Z,6.06
2017-11-11T06:05:10.910Z,5.96
2017-11-11T06:05:11.512Z,6.01
2017-11-11T06:05:12.109Z,6.03
2017-11-11T06:05:12.711Z,6.00
2017-11-11T06:08:15.887Z,6.01
2017-11-11T06:08:16.391Z,6.01
2017-11-11T06:08:17.007Z,5.89
2017-11-11T06:08:17.588Z,5.93
2017-11-11T06:08:18.188Z,5.92
2017-11-11T06:08:18.787Z,6.00
2017-11-11T06:08:19.388Z,5.96
2017-11-11T06:08:19.993Z,5.96
2017-11-11T06:08:20.586Z,5.92
2017-11-11T06:08:21.188Z,5.95
2017-11-11T06:08:21.787Z,5.93
2017-11-11T06:08:22.386Z,5.95
2017-11-11T06:08:23.020Z,6.00
2017-11-11T06:10:35.297Z,5.98
2017-11-11T06:10:35.865Z,6.04
2017-11-11T06:10:36.465Z,6.00
2017-11-11T06:10:37.064Z,5.98
2017-11-11T06:10:37.665Z,5.92
2017-11-11T06:10:38.261Z,5.93
2017-11-11T06:10:38.864Z,6.01
2017-11-11T06:10:39.463Z,5.95
2017-11-11T06:10:40.061Z,6.01
2017-11-11T06:10:40.661Z,5.93
2017-11-11T06:10:41.266Z,5.96
2017-11-11T06:10:41.861Z,5.98
2017-11-11T06:11:40.888Z,6.01
2017-11-11T06:11:41.454Z,5.92
2017-11-11T06:11:42.075Z,5.98
2017-11-11T06:11:42.655Z,5.89
2017-11-11T06:11:43.254Z,5.95
2017-11-11T06:11:43.856Z,5.89